createdAt,value
2023-02-24T00:00:32.768Z,1.40
2023-02-24T00:01:39.805Z,1.75
2023-02-24T00:02:43.005Z,1.48
2023-02-24T00:03:46.309Z,1.67
2023-02-24T00:04:52.148Z,1.73
2023-02-24T00:05:55.193Z,1.98
2023-02-24T00:07:00.177Z,1.67
2023-02-24T00:08:03.377Z,1.67
2023-02-24T00:09:08.686Z,1.37
2023-02-24T00:10:12.388Z,2.00
2023-02-24T00:11:18.035Z,1.60
2023-02-24T00:12:21.581Z,1.33
2023-02-24T00:13:24.681Z,2.28
2023-02-24T00:14:31.310Z,1.52
2023-02-24T00:15:34.674Z,1.60
2023-02-24T00:16:38.503Z,1.65
2023-02-24T00:17:46.661Z,1.17
2023-02-24T00:18:51.396Z,1.80
2023-02-24T00:19:54.737Z,1.58
2023-02-24T00:21:04.108Z,1.90
2023-02-24T00:22:09.008Z,1.60
2023-02-24T00:23:12.118Z,1.70
2023-02-24T00:24:15.541Z,1.73
2023-02-24T00:25:18.918Z,1.73
2023-02-24T00:26:22.213Z,2.08
2023-02-24T00:27:25.330Z,1.70
2023-02-24T00:28:29.912Z,1.62
2023-02-24T00:29:33.015Z,2.78
2023-02-24T00:30:36.182Z,1.95
2023-02-24T00:31:42.647Z,1.65
2023-02-24T00:32:46.001Z,1.95
2023-02-24T00:33:49.188Z,2.92
2023-02-24T00:34:52.252Z,1.65
2023-02-24T00:35:55.642Z,1.85
2023-02-24T00:36:59.787Z,1.48
2023-02-24T00:38:03.049Z,1.42
2023-02-24T00:39:10.420Z,2.03
2023-02-24T00:40:13.707Z,1.50
2023-02-24T00:41:19.886Z,1.40
2023-02-24T00:42:23.606Z,1.90
2023-02-24T00:43:26.858Z,1.60
2023-02-24T00:44:30.178Z,2.03
2023-02-24T00:45:38.092Z,1.90
2023-02-24T00:46:44.954Z,2.08
2023-02-24T00:47:48.228Z,1.83
2023-02-24T00:48:55.415Z,2.05
2023-02-24T00:49:58.888Z,1.45
2023-02-24T00:51:02.109Z,1.50
2023-02-24T00:52:05.972Z,2.45
2023-02-24T00:53:08.984Z,1.50
2023-02-24T00:54:15.294Z,1.75
2023-02-24T00:55:19.513Z,1.40
2023-02-24T00:56:24.797Z,2.28
2023-02-24T00:57:27.957Z,1.65
2023-02-24T00:58:32.327Z,1.40
2023-02-24T00:59:38.506Z,1.87
2023-02-24T01:00:43.857Z,2.30
2023-02-24T01:01:47.653Z,1.50
2023-02-24T01:02:50.840Z,1.60
2023-02-24T01:03:55.107Z,1.92
2023-02-24T01:04:58.338Z,1.85
2023-02-24T01:06:03.623Z,1.95
2023-02-24T01:07:11.323Z,2.42
2023-02-24T01:08:22.130Z,1.52
2023-02-24T01:09:27.529Z,2.12
2023-02-24T01:10:31.122Z,1.92
2023-02-24T01:11:55.210Z,2.42
2023-02-24T01:12:58.439Z,2.00
2023-02-24T01:14:09.544Z,2.42
2023-02-24T01:15:12.821Z,2.80
2023-02-24T01:16:19.271Z,2.25
2023-02-24T01:17:23.481Z,1.95
2023-02-24T01:18:26.588Z,2.22
2023-02-24T01:19:32.336Z,3.47
2023-02-24T01:20:35.757Z,1.90
2023-02-24T01:21:39.313Z,1.92
2023-02-24T01:22:44.094Z,2.10
2023-02-24T01:23:51.060Z,2.05
2023-02-24T01:24:54.268Z,2.50
2023-02-24T01:26:00.354Z,2.70
2023-02-24T01:27:04.554Z,2.10
2023-02-24T01:28:11.425Z,2.45
2023-02-24T01:29:15.260Z,2.37
2023-02-24T01:30:18.831Z,2.78
2023-02-24T01:31:23.839Z,1.85
2023-02-24T01:32:29.212Z,2.85
2023-02-24T01:33:37.508Z,2.97
2023-02-24T01:34:42.748Z,1.58
2023-02-24T01:35:46.193Z,2.08
2023-02-24T01:36:50.184Z,2.35
2023-02-24T01:37:53.689Z,2.80
2023-02-24T01:38:56.872Z,3.53
2023-02-24T01:40:00.157Z,2.80
2023-02-24T01:41:05.510Z,2.95
2023-02-24T01:42:17.000Z,2.35
2023-02-24T01:43:22.397Z,3.58
2023-02-24T01:44:25.520Z,1.80
2023-02-24T01:45:30.212Z,3.05
2023-02-24T01:46:34.610Z,2.17
2023-02-24T01:47:39.049Z,1.60
2023-02-24T01:48:43.048Z,2.35
2023-02-24T01:49:49.549Z,2.17
2023-02-24T01:50:53.310Z,1.98
2023-02-24T01:51:58.954Z,2.72
2023-02-24T01:53:05.722Z,1.60
2023-02-24T01:54:14.690Z,2.45
2023-02-24T01:55:25.829Z,2.15
2023-02-24T01:56:31.826Z,2.55
2023-02-24T01:57:39.009Z,2.30
2023-02-24T01:58:43.280Z,2.25
2023-02-24T01:59:52.894Z,2.12
2023-02-24T02:00:58.173Z,2.42
2023-02-24T02:02:04.900Z,2.33
2023-02-24T02:03:14.097Z,2.17
2023-02-24T02:04:28.454Z,1.90
2023-02-24T02:05:31.736Z,2.62
2023-02-24T02:06:35.379Z,2.42
2023-02-24T02:07:40.737Z,1.73
2023-02-24T02:08:44.846Z,2.08
2023-02-24T02:09:51.079Z,2.33
2023-02-24T02:10:59.459Z,2.50
2023-02-24T02:12:02.641Z,2.45
2023-02-24T02:13:06.579Z,1.87
2023-02-24T02:14:10.822Z,2.00
2023-02-24T02:15:20.987Z,2.17
2023-02-24T02:16:39.080Z,2.03
2023-02-24T02:18:17.552Z,2.25
2023-02-24T02:19:41.701Z,1.48
2023-02-24T02:21:22.146Z,1.90
2023-02-24T02:22:35.657Z,2.83
2023-02-24T02:24:00.050Z,2.60
2023-02-24T02:25:35.528Z,1.70
2023-02-24T02:26:41.474Z,1.37
2023-02-24T02:28:09.584Z,1.50
2023-02-24T02:29:41.949Z,1.80
2023-02-24T02:31:07.114Z,2.15
2023-02-24T02:32:31.990Z,1.50
2023-02-24T02:34:00.326Z,1.62
2023-02-24T02:35:13.394Z,2.25
2023-02-24T02:36:31.861Z,1.73
2023-02-24T02:37:48.264Z,2.65
2023-02-24T02:39:12.567Z,2.25
2023-02-24T02:40:32.420Z,2.00
2023-02-24T02:41:53.843Z,1.95
2023-02-24T02:43:14.464Z,1.90
2023-02-24T02:44:23.815Z,2.72
2023-02-24T02:45:41.637Z,1.42
2023-02-24T02:47:03.565Z,1.75
2023-02-24T02:48:34.516Z,1.87
2023-02-24T02:50:55.294Z,2.33
2023-02-24T02:53:49.844Z,1.55
2023-02-24T02:55:28.406Z,1.37
2023-02-24T02:56:32.194Z,1.98
2023-02-24T02:57:38.727Z,2.28
2023-02-24T02:58:56.300Z,2.60
2023-02-24T03:00:13.767Z,2.25
2023-02-24T03:01:21.366Z,1.98
2023-02-24T03:02:30.056Z,2.35
2023-02-24T03:03:39.237Z,2.05
2023-02-24T03:04:51.566Z,2.62
2023-02-24T03:06:04.457Z,2.08
2023-02-24T03:07:09.392Z,2.72
2023-02-24T03:08:16.547Z,2.70
2023-02-24T03:09:33.582Z,2.35
2023-02-24T03:10:37.940Z,1.67
2023-02-24T03:11:42.661Z,2.20
2023-02-24T03:12:50.963Z,2.40
2023-02-24T03:13:58.072Z,1.75
2023-02-24T03:15:06.139Z,3.80
2023-02-24T03:16:12.885Z,3.37
2023-02-24T03:17:25.336Z,2.85
2023-02-24T03:18:38.908Z,2.58
2023-02-24T03:19:44.811Z,2.30
2023-02-24T03:20:53.179Z,2.50
2023-02-24T03:22:06.618Z,2.00
2023-02-24T03:23:17.099Z,2.40
2023-02-24T03:24:21.407Z,2.40
2023-02-24T03:25:29.539Z,3.00
2023-02-24T03:26:38.263Z,2.62
2023-02-24T03:27:49.899Z,1.70
2023-02-24T03:29:01.502Z,2.33
2023-02-24T03:30:13.449Z,3.20
2023-02-24T03:31:30.149Z,2.58
2023-02-24T03:33:02.999Z,2.08
2023-02-24T03:34:12.834Z,2.22
2023-02-24T03:35:20.912Z,2.03
2023-02-24T03:36:24.121Z,1.92
2023-02-24T03:37:30.192Z,2.70
2023-02-24T03:38:38.818Z,2.58
2023-02-24T03:39:42.779Z,2.60
2023-02-24T03:40:46.510Z,2.50
2023-02-24T03:41:56.488Z,3.15
2023-02-24T03:43:26.336Z,2.97
2023-02-24T03:44:29.448Z,2.62
2023-02-24T03:45:38.487Z,2.78
2023-02-24T03:46:43.295Z,2.53
2023-02-24T03:47:46.967Z,2.72
2023-02-24T03:48:59.995Z,3.50
2023-02-24T03:50:15.525Z,2.30
2023-02-24T03:51:21.452Z,2.33
2023-02-24T03:52:50.405Z,4.00
2023-02-24T03:54:50.806Z,2.65
2023-02-24T03:56:11.177Z,2.45
2023-02-24T03:57:55.093Z,2.28
2023-02-24T03:59:42.575Z,2.85
2023-02-24T04:00:45.763Z,1.62
2023-02-24T04:01:58.361Z,2.28
2023-02-24T04:03:33.472Z,1.87
2023-02-24T04:04:48.948Z,1.87
2023-02-24T04:06:18.809Z,2.35
2023-02-24T04:08:01.743Z,3.03
2023-02-24T04:09:27.415Z,2.00
2023-02-24T04:10:42.193Z,1.90
2023-02-24T04:11:53.351Z,2.60
2023-02-24T04:13:19.426Z,1.70
2023-02-24T04:14:39.491Z,2.42
2023-02-24T04:15:45.800Z,2.22
2023-02-24T04:17:01.521Z,2.70
2023-02-24T04:18:21.271Z,2.33
2023-02-24T04:19:28.062Z,1.55
2023-02-24T04:20:34.686Z,1.95
2023-02-24T04:21:39.442Z,2.45
2023-02-24T04:22:45.075Z,2.05
2023-02-24T04:23:48.505Z,2.75
2023-02-24T04:24:57.167Z,2.25
2023-02-24T04:26:02.758Z,3.20
2023-02-24T04:27:09.886Z,2.70
2023-02-24T04:28:15.573Z,2.45
2023-02-24T04:29:24.233Z,2.72
2023-02-24T04:30:32.316Z,2.30
2023-02-24T04:31:39.405Z,2.45
2023-02-24T04:32:45.662Z,2.40
2023-02-24T04:33:50.816Z,3.33
2023-02-24T04:34:55.125Z,2.17
2023-02-24T04:35:58.367Z,2.30
2023-02-24T04:37:02.632Z,2.10
2023-02-24T04:38:05.954Z,3.40
2023-02-24T04:39:09.154Z,2.37
2023-02-24T04:40:17.038Z,2.37
2023-02-24T04:41:23.779Z,3.60
2023-02-24T04:42:27.442Z,2.25
2023-02-24T04:43:30.554Z,1.80
2023-02-24T04:44:33.917Z,2.70
2023-02-24T04:45:40.361Z,1.98
2023-02-24T04:46:44.932Z,2.40
2023-02-24T04:47:53.361Z,1.98
2023-02-24T04:48:57.585Z,2.35
2023-02-24T04:50:00.741Z,2.75
2023-02-24T04:51:06.989Z,2.45
2023-02-24T04:52:10.126Z,2.92
2023-02-24T04:53:17.658Z,2.25
2023-02-24T04:54:21.653Z,2.47
2023-02-24T04:55:29.521Z,2.35
2023-02-24T04:56:32.803Z,2.10
2023-02-24T04:57:40.610Z,2.75
2023-02-24T04:58:46.909Z,2.62
2023-02-24T04:59:52.147Z,2.08
2023-02-24T05:00:56.213Z,2.97
2023-02-24T05:02:01.942Z,2.72
2023-02-24T05:03:06.563Z,2.92
2023-02-24T05:04:11.796Z,1.90
2023-02-24T05:05:16.266Z,2.75
2023-02-24T05:06:19.474Z,3.03
2023-02-24T05:07:22.869Z,2.33
2023-02-24T05:08:28.312Z,2.00
2023-02-24T05:09:31.587Z,2.78
2023-02-24T05:10:41.165Z,2.37
2023-02-24T05:11:49.262Z,2.95
2023-02-24T05:12:54.147Z,2.50
2023-02-24T05:13:57.358Z,2.87
2023-02-24T05:15:01.701Z,2.92
2023-02-24T05:16:08.456Z,2.17
2023-02-24T05:17:14.127Z,2.75
2023-02-24T05:18:18.836Z,3.10
2023-02-24T05:19:40.528Z,2.37
2023-02-24T05:21:04.839Z,2.50
2023-02-24T05:22:10.247Z,2.00
2023-02-24T05:23:13.402Z,2.75
2023-02-24T05:24:17.524Z,2.67
2023-02-24T05:25:21.357Z,3.10
2023-02-24T05:26:25.980Z,2.40
2023-02-24T05:27:29.316Z,2.87
2023-02-24T05:28:32.692Z,2.62
2023-02-24T05:29:36.297Z,2.78
2023-02-24T05:30:39.615Z,3.40
2023-02-24T05:31:43.019Z,2.95
2023-02-24T05:32:46.335Z,2.47
2023-02-24T05:33:54.898Z,2.90
2023-02-24T05:34:58.030Z,2.70
2023-02-24T05:36:09.091Z,2.08
2023-02-24T05:37:12.363Z,2.50
2023-02-24T05:38:20.047Z,2.97
2023-02-24T05:39:25.582Z,3.67
2023-02-24T05:40:28.674Z,2.35
2023-02-24T05:41:36.482Z,2.08
2023-02-24T05:42:41.212Z,1.87
2023-02-24T05:43:53.605Z,2.47
2023-02-24T05:44:56.767Z,2.50
2023-02-24T05:46:07.478Z,2.12
2023-02-24T05:47:11.217Z,3.22
2023-02-24T05:48:15.474Z,2.30
2023-02-24T05:49:24.396Z,2.22
2023-02-24T05:50:27.687Z,2.95
2023-02-24T05:51:36.824Z,2.75
2023-02-24T05:52:40.031Z,2.40
2023-02-24T05:53:43.413Z,1.92
2023-02-24T05:54:48.570Z,2.45
2023-02-24T05:55:51.637Z,2.25
2023-02-24T05:56:57.341Z,2.42
2023-02-24T05:58:00.614Z,3.03
2023-02-24T05:59:08.370Z,2.62
2023-02-24T06:00:16.630Z,3.22
2023-02-24T06:01:20.761Z,2.95
2023-02-24T06:02:27.894Z,2.70
2023-02-24T06:03:35.831Z,2.35
2023-02-24T06:04:54.336Z,1.70
2023-02-24T06:06:09.155Z,2.28
2023-02-24T06:07:19.522Z,2.60
2023-02-24T06:08:24.639Z,4.25
2023-02-24T06:09:27.840Z,2.72
2023-02-24T06:10:33.972Z,2.45
2023-02-24T06:11:41.091Z,2.55
2023-02-24T06:12:45.768Z,2.83
2023-02-24T06:13:49.109Z,2.62
2023-02-24T06:14:53.321Z,2.30
2023-02-24T06:15:57.528Z,2.20
2023-02-24T06:17:03.838Z,2.55
2023-02-24T06:18:07.638Z,3.58
2023-02-24T06:19:12.597Z,2.97
2023-02-24T06:20:16.174Z,3.55
2023-02-24T06:21:19.850Z,2.28
2023-02-24T06:22:25.512Z,2.17
2023-02-24T06:23:28.996Z,2.35
2023-02-24T06:24:33.789Z,2.72
2023-02-24T06:25:38.938Z,2.65
2023-02-24T06:26:46.243Z,2.12
2023-02-24T06:27:53.511Z,2.33
2023-02-24T06:28:59.084Z,3.00
2023-02-24T06:30:02.313Z,2.85
2023-02-24T06:31:09.423Z,3.05
2023-02-24T06:32:13.185Z,2.42
2023-02-24T06:33:16.473Z,2.72
2023-02-24T06:34:19.580Z,2.25
2023-02-24T06:35:23.197Z,2.75
2023-02-24T06:36:26.413Z,3.03
2023-02-24T06:37:30.324Z,3.25
2023-02-24T06:38:36.857Z,3.10
2023-02-24T06:39:40.569Z,2.47
2023-02-24T06:40:44.079Z,2.53
2023-02-24T06:41:51.914Z,2.90
2023-02-24T06:42:55.225Z,2.97
2023-02-24T06:43:59.099Z,3.17
2023-02-24T06:45:02.221Z,2.53
2023-02-24T06:46:10.141Z,2.67
2023-02-24T06:47:15.005Z,1.92
2023-02-24T06:48:18.237Z,2.78
2023-02-24T06:49:21.600Z,3.15
2023-02-24T06:50:24.883Z,2.15
2023-02-24T06:51:30.527Z,3.45
2023-02-24T06:52:34.488Z,2.08
2023-02-24T06:53:43.532Z,2.90
2023-02-24T06:54:49.910Z,3.12
2023-02-24T06:55:53.461Z,2.87
2023-02-24T06:56:59.409Z,3.85
2023-02-24T06:58:05.763Z,2.65
2023-02-24T06:59:13.402Z,3.50
2023-02-24T07:00:17.645Z,3.20
2023-02-24T07:01:26.177Z,3.40
2023-02-24T07:02:39.979Z,2.25
2023-02-24T07:03:48.162Z,2.53
2023-02-24T07:04:55.871Z,2.72
2023-02-24T07:06:20.812Z,3.50
2023-02-24T07:07:24.388Z,3.25
2023-02-24T07:08:27.691Z,2.85
2023-02-24T07:09:32.430Z,2.75
2023-02-24T07:10:35.590Z,4.00
2023-02-24T07:11:41.862Z,2.60
2023-02-24T07:12:45.192Z,3.42
2023-02-24T07:13:49.360Z,3.72
2023-02-24T07:14:52.809Z,3.22
2023-02-24T07:15:56.366Z,2.62
2023-02-24T07:17:00.734Z,3.75
2023-02-24T07:18:04.816Z,3.65
2023-02-24T07:19:14.392Z,2.80
2023-02-24T07:20:25.688Z,2.00
2023-02-24T07:21:30.843Z,2.80
2023-02-24T07:22:34.133Z,2.28
2023-02-24T07:23:38.895Z,2.33
2023-02-24T07:24:46.669Z,3.08
2023-02-24T07:25:50.495Z,2.67
2023-02-24T07:26:59.335Z,3.47
2023-02-24T07:28:02.503Z,1.98
2023-02-24T07:29:06.771Z,3.35
2023-02-24T07:30:12.336Z,2.85
2023-02-24T07:31:22.628Z,2.30
2023-02-24T07:32:26.071Z,2.47
2023-02-24T07:33:29.327Z,2.55
2023-02-24T07:34:34.193Z,2.50
2023-02-24T07:35:37.369Z,2.35
2023-02-24T07:36:49.649Z,3.25
2023-02-24T07:37:52.887Z,2.90
2023-02-24T07:38:58.736Z,2.95
2023-02-24T07:40:02.731Z,2.37
2023-02-24T07:41:07.264Z,3.00
2023-02-24T07:42:13.741Z,3.00
2023-02-24T07:43:17.613Z,3.45
2023-02-24T07:44:23.711Z,2.90
2023-02-24T07:45:27.068Z,4.70
2023-02-24T07:46:32.701Z,3.12
2023-02-24T07:47:36.270Z,4.97
2023-02-24T07:48:42.116Z,5.22
2023-02-24T07:49:45.824Z,4.60
2023-02-24T07:50:51.213Z,2.62
2023-02-24T07:51:58.199Z,3.95
2023-02-24T07:53:05.224Z,3.92
2023-02-24T07:54:09.178Z,3.45
2023-02-24T07:55:12.254Z,3.80
2023-02-24T07:56:18.277Z,4.18
2023-02-24T07:57:22.597Z,5.03
2023-02-24T07:58:25.799Z,2.80
2023-02-24T07:59:31.471Z,3.05
2023-02-24T08:00:50.729Z,3.95
2023-02-24T08:01:56.216Z,3.00
2023-02-24T08:03:00.623Z,2.65
2023-02-24T08:04:08.299Z,3.15
2023-02-24T08:05:11.394Z,3.05
2023-02-24T08:06:27.383Z,2.40
2023-02-24T08:07:31.112Z,2.50
2023-02-24T08:08:54.211Z,2.78
2023-02-24T08:10:24.664Z,2.55
2023-02-24T08:11:43.024Z,2.62
2023-02-24T08:12:47.858Z,2.33
2023-02-24T08:13:51.475Z,2.72
2023-02-24T08:15:00.546Z,2.50
2023-02-24T08:16:05.981Z,2.40
2023-02-24T08:17:09.506Z,3.03
2023-02-24T08:18:14.060Z,2.75
2023-02-24T08:19:23.158Z,2.53
2023-02-24T08:20:36.603Z,3.05
2023-02-24T08:21:47.904Z,2.87
2023-02-24T08:22:52.715Z,3.70
2023-02-24T08:23:55.902Z,2.37
2023-02-24T08:25:06.572Z,2.55
2023-02-24T08:26:13.098Z,3.53
2023-02-24T08:27:42.473Z,3.53
2023-02-24T08:28:45.718Z,2.87
2023-02-24T08:30:00.986Z,2.75
2023-02-24T08:31:04.922Z,2.22
2023-02-24T08:32:09.824Z,2.50
2023-02-24T08:33:19.743Z,3.12
2023-02-24T08:34:22.848Z,2.95
2023-02-24T08:35:38.253Z,3.05
2023-02-24T08:36:48.710Z,3.15
2023-02-24T08:37:54.782Z,3.08
2023-02-24T08:39:00.005Z,3.15
2023-02-24T08:40:05.766Z,2.22
2023-02-24T08:41:21.678Z,2.75
2023-02-24T08:42:34.805Z,2.83
2023-02-24T08:43:40.627Z,3.00
2023-02-24T08:44:46.106Z,2.85
2023-02-24T08:45:56.904Z,2.85
2023-02-24T08:48:18.656Z,3.12
2023-02-24T08:49:25.518Z,2.67
2023-02-24T08:50:34.063Z,3.05
2023-02-24T08:51:44.171Z,2.97
2023-02-24T08:52:47.342Z,2.70
2023-02-24T08:53:54.104Z,3.40
2023-02-24T08:55:01.954Z,3.17
2023-02-24T08:56:14.453Z,3.08
2023-02-24T08:57:18.498Z,3.15
2023-02-24T08:58:27.314Z,3.47
2023-02-24T08:59:40.536Z,3.60
2023-02-24T09:00:49.488Z,2.53
2023-02-24T09:02:04.104Z,3.42
2023-02-24T09:03:09.251Z,3.22
2023-02-24T09:04:19.331Z,3.45
2023-02-24T09:05:24.708Z,3.60
2023-02-24T09:06:44.488Z,3.58
2023-02-24T09:07:55.136Z,3.45
2023-02-24T09:09:18.688Z,3.12
2023-02-24T09:10:22.182Z,2.65
2023-02-24T09:11:25.317Z,3.35
2023-02-24T09:12:30.847Z,3.62
2023-02-24T09:14:01.838Z,4.03
2023-02-24T09:15:05.347Z,3.28
2023-02-24T09:16:16.985Z,3.30
2023-02-24T09:17:21.005Z,2.78
2023-02-24T09:18:30.556Z,3.75
2023-02-24T09:19:52.954Z,3.40
2023-02-24T09:20:57.090Z,3.83
2023-02-24T09:22:21.103Z,3.08
2023-02-24T09:23:30.662Z,4.12
2023-02-24T09:24:34.009Z,4.20
2023-02-24T09:25:44.551Z,4.00
2023-02-24T09:26:47.613Z,4.28
2023-02-24T09:28:08.456Z,4.03
2023-02-24T09:29:33.436Z,3.67
2023-02-24T09:30:45.597Z,2.97
2023-02-24T09:31:55.710Z,3.95
2023-02-24T09:33:01.705Z,3.40
2023-02-24T09:34:04.754Z,3.37
2023-02-24T09:35:08.164Z,3.22
2023-02-24T09:36:30.575Z,3.70
2023-02-24T09:37:33.665Z,4.93
2023-02-24T09:39:05.346Z,3.90
2023-02-24T09:40:32.518Z,4.03
2023-02-24T09:41:57.099Z,3.67
2023-02-24T09:43:00.429Z,3.15
2023-02-24T09:44:18.712Z,4.03
2023-02-24T09:45:33.667Z,3.42
2023-02-24T09:46:54.310Z,3.40
2023-02-24T09:47:57.629Z,3.50
2023-02-24T09:49:15.855Z,4.00
2023-02-24T09:50:51.261Z,3.95
2023-02-24T09:51:46.212Z,3.40
2023-02-24T09:52:57.587Z,4.25
2023-02-24T09:54:04.256Z,4.18
2023-02-24T09:55:30.019Z,3.62
2023-02-24T09:56:42.930Z,4.05
2023-02-24T09:58:16.300Z,3.83
2023-02-24T09:59:34.962Z,3.35
2023-02-24T10:00:44.537Z,3.60
2023-02-24T10:02:06.035Z,3.17
2023-02-24T10:03:42.877Z,3.87
2023-02-24T10:04:55.255Z,2.95
2023-02-24T10:06:12.538Z,4.78
2023-02-24T10:07:30.364Z,3.17
2023-02-24T10:08:38.989Z,3.62
2023-02-24T10:09:50.389Z,3.83
2023-02-24T10:11:09.982Z,4.00
2023-02-24T10:12:17.643Z,3.55
2023-02-24T10:13:33.023Z,3.60
2023-02-24T10:15:00.196Z,3.53
2023-02-24T10:16:08.323Z,4.05
2023-02-24T10:17:40.527Z,4.00
2023-02-24T10:19:15.486Z,4.05
2023-02-24T10:20:40.200Z,3.00
2023-02-24T10:22:08.601Z,2.90
2023-02-24T10:23:45.434Z,2.87
2023-02-24T10:25:01.676Z,3.22
2023-02-24T10:26:08.002Z,3.12
2023-02-24T10:27:27.324Z,4.03
2023-02-24T10:28:54.186Z,3.92
2023-02-24T10:30:20.088Z,3.87
2023-02-24T10:31:43.285Z,3.20
2023-02-24T10:32:59.213Z,3.72
2023-02-24T10:34:08.736Z,3.55
2023-02-24T10:35:20.873Z,3.97
2023-02-24T10:36:35.776Z,4.75
2023-02-24T10:37:38.960Z,3.90
2023-02-24T10:38:45.838Z,4.15
2023-02-24T10:39:51.991Z,4.70
2023-02-24T10:41:00.078Z,4.03
2023-02-24T10:42:18.106Z,4.53
2023-02-24T10:43:30.545Z,3.62
2023-02-24T10:44:36.786Z,3.22
2023-02-24T10:45:45.682Z,3.25
2023-02-24T10:47:11.798Z,4.12
2023-02-24T10:48:41.058Z,3.85
2023-02-24T10:49:58.342Z,2.93
2023-02-24T10:51:10.361Z,3.35
2023-02-24T10:52:36.980Z,2.95
2023-02-24T10:53:46.459Z,3.33
2023-02-24T10:55:08.778Z,3.72
2023-02-24T10:56:27.305Z,4.25
2023-02-24T10:57:47.413Z,3.72
2023-02-24T10:59:26.966Z,3.50
2023-02-24T11:00:48.595Z,3.83
2023-02-24T11:02:06.955Z,3.78
2023-02-24T11:03:22.117Z,3.17
2023-02-24T11:04:54.463Z,2.97
2023-02-24T11:06:08.849Z,3.92
2023-02-24T11:07:25.078Z,4.47
2023-02-24T11:08:40.215Z,4.37
2023-02-24T11:09:53.235Z,4.20
2023-02-24T11:11:08.044Z,3.78
2023-02-24T11:12:33.923Z,3.65
2023-02-24T11:13:56.338Z,4.15
2023-02-24T11:15:22.206Z,4.10
2023-02-24T11:16:54.783Z,4.55
2023-02-24T11:17:59.980Z,3.95
2023-02-24T11:19:07.284Z,3.58
2023-02-24T11:20:49.093Z,4.15
2023-02-24T11:21:56.498Z,3.37
2023-02-24T11:23:03.753Z,4.60
2023-02-24T11:24:07.166Z,3.37
2023-02-24T11:25:27.553Z,4.93
2023-02-24T11:26:38.237Z,3.87
2023-02-24T11:29:01.092Z,4.55
2023-02-24T11:30:35.868Z,4.28
2023-02-24T11:32:09.241Z,3.55
2023-02-24T11:33:59.897Z,3.70
2023-02-24T11:35:12.795Z,4.50
2023-02-24T11:36:49.788Z,3.90
2023-02-24T11:37:53.406Z,3.90
2023-02-24T11:39:05.538Z,5.05
2023-02-24T11:40:24.633Z,4.65
2023-02-24T11:41:34.228Z,4.55
2023-02-24T11:42:46.574Z,4.20
2023-02-24T11:43:59.927Z,4.72
2023-02-24T11:45:33.997Z,4.45
2023-02-24T11:46:44.547Z,3.87
2023-02-24T11:47:56.727Z,5.18
2023-02-24T11:49:03.332Z,4.45
2023-02-24T11:50:17.997Z,4.82
2023-02-24T11:51:27.290Z,5.32
2023-02-24T11:52:39.094Z,4.93
2023-02-24T11:53:54.027Z,3.78
2023-02-24T11:54:58.579Z,4.72
2023-02-24T11:56:13.647Z,5.20
2023-02-24T11:57:37.958Z,4.85
2023-02-24T11:58:47.872Z,5.35
2023-02-24T12:00:02.172Z,4.90
2023-02-24T12:01:26.831Z,5.43
2023-02-24T12:02:36.232Z,5.25
2023-02-24T12:04:11.687Z,4.50
2023-02-24T12:05:22.463Z,4.90
2023-02-24T12:06:51.412Z,4.97
2023-02-24T12:08:04.783Z,5.95
2023-02-24T12:09:19.904Z,5.47
2023-02-24T12:10:31.716Z,5.80
2023-02-24T12:12:04.031Z,5.85
2023-02-24T12:13:28.478Z,5.22
2023-02-24T12:14:38.301Z,5.35
2023-02-24T12:15:49.157Z,4.62
2023-02-24T12:17:18.443Z,5.37
2023-02-24T12:18:30.606Z,5.43
2023-02-24T12:19:52.146Z,5.75
2023-02-24T12:21:15.140Z,6.15
2023-02-24T12:22:18.583Z,5.12
2023-02-24T12:23:35.447Z,5.12
2023-02-24T12:24:50.222Z,6.12
2023-02-24T12:26:05.182Z,4.70
2023-02-24T12:27:32.522Z,5.10
2023-02-24T12:28:58.063Z,5.25
2023-02-24T12:30:23.391Z,5.00
2023-02-24T12:31:42.106Z,6.32
2023-02-24T12:33:00.266Z,4.72
2023-02-24T12:34:38.729Z,5.57
2023-02-24T12:35:41.644Z,4.60
2023-02-24T12:37:08.047Z,5.62
2023-02-24T12:38:24.719Z,4.50
2023-02-24T12:39:36.398Z,4.53
2023-02-24T12:41:21.226Z,5.32
2023-02-24T12:43:09.516Z,5.72
2023-02-24T12:44:21.346Z,5.20
2023-02-24T12:45:49.169Z,4.90
2023-02-24T12:47:07.680Z,5.28
2023-02-24T12:48:49.524Z,5.00
2023-02-24T12:50:13.011Z,5.03
2023-02-24T12:51:52.256Z,4.72
2023-02-24T12:53:16.331Z,5.20
2023-02-24T12:54:41.975Z,4.62
2023-02-24T12:56:13.160Z,4.32
2023-02-24T12:57:25.658Z,5.65
2023-02-24T12:58:34.684Z,4.85
2023-02-24T12:59:41.475Z,4.50
2023-02-24T13:01:02.470Z,5.97
2023-02-24T13:03:50.353Z,4.28
2023-02-24T13:05:39.681Z,5.05
2023-02-24T13:06:53.247Z,4.68
2023-02-24T13:08:24.906Z,4.07
2023-02-24T13:09:28.098Z,4.80
2023-02-24T13:10:45.379Z,5.22
2023-02-24T13:12:12.869Z,4.68
2023-02-24T13:13:40.298Z,4.32
2023-02-24T13:14:45.680Z,4.55
2023-02-24T13:15:55.368Z,4.78
2023-02-24T13:17:20.304Z,4.95
2023-02-24T13:18:31.799Z,5.37
2023-02-24T13:19:36.040Z,4.25
2023-02-24T13:20:39.502Z,4.00
2023-02-24T13:22:07.545Z,4.15
2023-02-24T13:23:21.417Z,3.83
2023-02-24T13:24:26.178Z,3.70
2023-02-24T13:25:37.421Z,3.97
2023-02-24T13:26:40.502Z,3.40
2023-02-24T13:27:44.287Z,3.78
2023-02-24T13:29:11.051Z,4.93
2023-02-24T13:30:18.749Z,5.05
2023-02-24T13:31:24.659Z,3.50
2023-02-24T13:32:33.988Z,3.72
2023-02-24T13:33:42.756Z,4.03
2023-02-24T13:34:45.957Z,4.45
2023-02-24T13:35:52.255Z,4.03
2023-02-24T13:36:55.496Z,4.32
2023-02-24T13:38:26.867Z,5.03
2023-02-24T13:39:34.976Z,3.95
2023-02-24T13:40:38.597Z,3.22
2023-02-24T13:41:41.663Z,4.35
2023-02-24T13:43:05.174Z,4.60
2023-02-24T13:44:22.939Z,4.10
2023-02-24T13:45:30.976Z,3.22
2023-02-24T13:46:56.740Z,2.90
2023-02-24T13:48:19.976Z,3.33
2023-02-24T13:49:52.582Z,2.72
2023-02-24T13:51:14.374Z,3.40
2023-02-24T13:52:46.765Z,3.72
2023-02-24T13:54:43.564Z,2.40
2023-02-24T13:55:51.369Z,2.60
2023-02-24T13:56:56.730Z,3.53
2023-02-24T13:58:36.100Z,3.67
2023-02-24T14:00:10.400Z,3.28
2023-02-24T14:01:17.112Z,3.08
2023-02-24T14:02:31.225Z,2.92
2023-02-24T14:03:36.022Z,3.70
2023-02-24T14:04:50.175Z,4.03
2023-02-24T14:05:54.188Z,3.20
2023-02-24T14:07:05.474Z,3.22
2023-02-24T14:08:12.705Z,3.72
2023-02-24T14:09:22.901Z,3.78
2023-02-24T14:10:31.694Z,4.57
2023-02-24T14:11:56.222Z,3.55
2023-02-24T14:13:20.947Z,3.58
2023-02-24T14:14:24.776Z,4.00
2023-02-24T14:15:28.802Z,3.10
2023-02-24T14:16:40.214Z,3.50
2023-02-24T14:17:43.427Z,2.90
2023-02-24T14:18:55.103Z,4.32
2023-02-24T14:20:07.267Z,3.47
2023-02-24T14:21:25.747Z,3.45
2023-02-24T14:22:29.312Z,3.12
2023-02-24T14:23:37.583Z,3.50
2023-02-24T14:24:40.560Z,3.22
2023-02-24T14:25:43.628Z,3.83
2023-02-24T14:26:49.893Z,4.07
2023-02-24T14:27:55.959Z,3.83
2023-02-24T14:29:02.155Z,3.85
2023-02-24T14:30:08.123Z,3.55
2023-02-24T14:31:15.135Z,4.07
2023-02-24T14:32:24.893Z,3.15
2023-02-24T14:33:31.843Z,4.30
2023-02-24T14:34:35.478Z,3.35
2023-02-24T14:35:47.692Z,3.60
2023-02-24T14:36:56.966Z,3.65
2023-02-24T14:38:02.197Z,3.22
2023-02-24T14:39:23.140Z,3.85
2023-02-24T14:40:26.470Z,3.22
2023-02-24T14:41:29.627Z,3.30
2023-02-24T14:42:32.752Z,3.10
2023-02-24T14:43:42.419Z,3.83
2023-02-24T14:44:58.790Z,3.85
2023-02-24T14:46:06.371Z,3.62
2023-02-24T14:47:13.467Z,3.50
2023-02-24T14:48:26.265Z,4.68
2023-02-24T14:49:32.064Z,3.58
2023-02-24T14:50:35.713Z,4.03
2023-02-24T14:51:38.979Z,4.20
2023-02-24T14:53:10.286Z,3.42
2023-02-24T14:54:21.609Z,4.37
2023-02-24T14:55:32.096Z,4.75
2023-02-24T14:56:36.888Z,3.15
2023-02-24T14:58:06.131Z,3.83
2023-02-24T14:59:20.246Z,3.03
2023-02-24T15:00:35.300Z,3.65
2023-02-24T15:01:44.486Z,3.83
2023-02-24T15:02:53.635Z,3.60
2023-02-24T15:04:01.914Z,4.35
2023-02-24T15:05:09.124Z,4.95
2023-02-24T15:06:31.381Z,3.17
2023-02-24T15:07:35.812Z,3.45
2023-02-24T15:08:38.833Z,3.83
2023-02-24T15:09:45.013Z,3.58
2023-02-24T15:10:48.536Z,4.97
2023-02-24T15:11:56.535Z,3.60
2023-02-24T15:13:30.024Z,3.47
2023-02-24T15:14:33.160Z,4.18
2023-02-24T15:15:42.909Z,5.12
2023-02-24T15:16:49.774Z,3.73
2023-02-24T15:18:04.511Z,4.07
2023-02-24T15:19:26.902Z,5.07
2023-02-24T15:20:34.130Z,3.67
2023-02-24T15:21:41.685Z,3.22
2023-02-24T15:22:50.273Z,3.47
2023-02-24T15:24:03.298Z,3.67
2023-02-24T15:25:37.199Z,3.12
2023-02-24T15:26:56.544Z,4.65
2023-02-24T15:28:02.192Z,3.55
2023-02-24T15:29:20.942Z,4.65
2023-02-24T15:30:31.058Z,4.75
2023-02-24T15:31:34.106Z,3.78
2023-02-24T15:32:38.699Z,4.57
2023-02-24T15:33:53.585Z,5.22
2023-02-24T15:34:57.014Z,3.47
2023-02-24T15:36:01.103Z,4.90
2023-02-24T15:37:24.082Z,4.28
2023-02-24T15:38:34.773Z,3.10
2023-02-24T15:39:43.055Z,3.87
2023-02-24T15:40:58.389Z,3.10
2023-02-24T15:42:18.247Z,3.35
2023-02-24T15:43:40.406Z,3.97
2023-02-24T15:44:55.021Z,2.92
2023-02-24T15:45:58.446Z,3.85
2023-02-24T15:47:25.257Z,3.47
2023-02-24T15:48:31.317Z,4.40
2023-02-24T15:49:34.759Z,4.10
2023-02-24T15:50:38.512Z,4.40
2023-02-24T15:51:45.638Z,4.32
2023-02-24T15:52:51.894Z,4.43